Time;durP1;ratioP1;P1;durP2;ratioP2;P2;SDS_P1;SDS_P2;PMS_P1;PMS_P2;Temp;Humidity;BMP_temperature;BMP_pressure;BME280_temperature;BME280_humidity;BME280_pressure;Samples;Min_cycle;Max_cycle;Signal;HPM_P1;HPM_P2
2022/11/13 00:01:23;;;;;;;18.43;15.43;;;;;;;4.60;nan;99134.41;5056144;28;20347;-71
2022/11/13 00:03:49;;;;;;;20.10;15.30;;;;;;;4.62;nan;99135.09;5056258;28;20572;-71
2022/11/13 00:06:17;;;;;;;18.23;15.37;;;;;;;4.57;nan;99129.47;5056206;28;20209;-71
2022/11/13 00:08:43;;;;;;;17.40;15.53;;;;;;;4.61;nan;99125.53;5056213;28;20201;-71
2022/11/13 00:11:17;;;;;;;18.07;15.13;;;;;;;4.57;nan;99121.56;5056006;28;20312;-71
2022/11/13 00:13:44;;;;;;;18.30;14.87;;;;;;;4.55;nan;99121.72;5056093;28;20243;-71
2022/11/13 00:16:12;;;;;;;20.17;15.20;;;;;;;4.54;nan;99109.53;5056019;28;20209;-71
2022/11/13 00:18:39;;;;;;;16.53;13.67;;;;;;;4.53;nan;99102.59;5055911;28;20221;-71
2022/11/13 00:21:14;;;;;;;16.20;14.20;;;;;;;4.53;nan;99099.94;5055842;28;20221;-71
2022/11/13 00:23:41;;;;;;;17.77;14.93;;;;;;;4.48;nan;99102.22;5056180;28;20208;-71
2022/11/13 00:26:13;;;;;;;16.87;14.17;;;;;;;4.45;nan;99109.63;5055881;28;20217;-71
2022/11/13 00:28:40;;;;;;;16.80;15.03;;;;;;;4.39;nan;99108.41;5054775;28;20216;-71
2022/11/13 00:31:08;;;;;;;16.03;14.20;;;;;;;4.36;nan;99105.28;5055928;28;20237;-71
2022/11/13 00:33:35;;;;;;;17.30;14.87;;;;;;;4.28;nan;99097.31;5055697;28;20205;-71
2022/11/13 00:36:07;;;;;;;17.73;14.83;;;;;;;4.34;nan;99096.72;5055709;28;20202;-71
2022/11/13 00:38:33;;;;;;;17.97;14.53;;;;;;;4.23;nan;99097.81;5055598;28;20213;-71
2022/11/13 00:41:00;;;;;;;17.03;14.27;;;;;;;4.25;nan;99095.00;5055503;28;20745;-71
2022/11/13 00:43:27;;;;;;;20.20;16.10;;;;;;;4.22;nan;99090.88;5055479;28;20206;-71
2022/11/13 00:45:54;;;;;;;18.77;14.60;;;;;;;4.19;nan;99085.09;5055551;28;20209;-71
2022/11/13 00:48:20;;;;;;;16.77;14.67;;;;;;;4.21;nan;99083.94;5055448;28;20208;-71
2022/11/13 00:50:48;;;;;;;21.07;15.17;;;;;;;4.20;nan;99081.50;5055318;28;20712;-71
2022/11/13 00:53:14;;;;;;;22.47;15.30;;;;;;;4.18;nan;99083.44;5055340;28;20205;-71
2022/11/13 00:55:43;;;;;;;18.93;15.27;;;;;;;4.15;nan;99079.31;5054930;28;20207;-71
2022/11/13 00:58:11;;;;;;;18.20;15.07;;;;;;;4.08;nan;99074.81;5054944;28;20217;-71
2022/11/13 01:00:40;;;;;;;16.63;14.37;;;;;;;4.08;nan;99062.50;5055072;28;20255;-71
2022/11/13 01:03:06;;;;;;;19.30;15.50;;;;;;;4.05;nan;99062.78;5055062;28;20209;-71
2022/11/13 01:05:42;;;;;;;20.80;15.70;;;;;;;3.93;nan;99063.19;5055127;28;20205;-71
2022/11/13 01:08:09;;;;;;;21.60;15.43;;;;;;;3.90;nan;99072.22;5055043;28;20196;-71
2022/11/13 01:10:41;;;;;;;17.50;14.60;;;;;;;3.83;nan;99065.06;5054988;28;20232;-71
2022/11/13 01:13:08;;;;;;;17.23;13.80;;;;;;;3.83;nan;99065.06;5054999;28;20197;-71
2022/11/13 01:15:34;;;;;;;20.20;15.97;;;;;;;3.78;nan;99062.91;5054884;28;20227;-71
2022/11/13 01:18:00;;;;;;;20.40;14.37;;;;;;;3.83;nan;99071.16;5054521;28;20221;-71
2022/11/13 01:20:27;;;;;;;17.43;13.67;;;;;;;3.81;nan;99067.88;5054742;28;20225;-71
2022/11/13 01:22:53;;;;;;;18.23;15.40;;;;;;;3.87;nan;99063.78;5054550;28;20213;-71
2022/11/13 01:25:19;;;;;;;18.03;15.23;;;;;;;3.89;nan;99056.59;5054434;28;20210;-71
2022/11/13 01:27:46;;;;;;;18.17;15.30;;;;;;;3.95;nan;99055.97;5054343;28;20211;-71
2022/11/13 01:30:12;;;;;;;24.67;15.90;;;;;;;4.04;nan;99050.63;5054314;28;20205;-71
2022/11/13 01:32:38;;;;;;;23.77;16.47;;;;;;;4.00;nan;99046.66;5054339;28;20205;-71
2022/11/13 01:35:05;;;;;;;39.47;17.90;;;;;;;4.00;nan;99046.66;5054237;28;20205;-71
2022/11/13 01:37:32;;;;;;;48.50;17.47;;;;;;;4.07;nan;99038.97;5054496;28;20551;-71
2022/11/13 01:39:58;;;;;;;56.93;19.90;;;;;;;3.99;nan;99034.47;5054234;28;20208;-71
2022/11/13 01:42:24;;;;;;;85.17;20.70;;;;;;;3.95;nan;99042.81;5054092;28;20664;-71
2022/11/13 01:44:53;;;;;;;89.53;20.00;;;;;;;4.11;nan;99032.41;5054379;28;20202;-71
2022/11/13 01:47:21;;;;;;;132.70;21.97;;;;;;;3.87;nan;99030.44;5054290;28;20206;-71
2022/11/13 01:49:51;;;;;;;163.13;22.50;;;;;;;3.94;nan;99026.19;5053971;28;20672;-71
2022/11/13 01:52:21;;;;;;;145.03;22.27;;;;;;;3.88;nan;99018.13;5054183;28;20233;-71
2022/11/13 01:54:52;;;;;;;136.07;22.07;;;;;;;3.94;nan;99020.13;5053000;28;20219;-71
2022/11/13 01:57:19;;;;;;;121.47;20.50;;;;;;;3.84;nan;99016.78;5053878;28;20633;-71
2022/11/13 01:59:53;;;;;;;101.50;19.53;;;;;;;3.72;nan;99015.34;5054030;28;20315;-71
2022/11/13 02:02:19;;;;;;;97.13;20.30;;;;;;;3.71;nan;99009.25;5053919;28;20225;-71
2022/11/13 02:04:45;;;;;;;78.13;18.53;;;;;;;3.77;nan;99008.66;5054053;28;20205;-71
2022/11/13 02:07:17;;;;;;;77.33;19.87;;;;;;;3.84;nan;99004.44;5054548;28;20228;-71
2022/11/13 02:09:47;;;;;;;100.20;19.03;;;;;;;3.76;nan;99003.56;5053668;28;20755;-71
2022/11/13 02:12:16;;;;;;;87.33;18.00;;;;;;;3.68;nan;98999.06;5053517;28;20689;-71
2022/11/13 02:14:46;;;;;;;89.07;18.53;;;;;;;3.70;nan;98997.09;5053755;28;20205;-71
2022/11/13 02:17:21;;;;;;;105.13;19.13;;;;;;;3.61;nan;99005.91;5053814;28;20274;-71
2022/11/13 02:19:53;;;;;;;173.20;22.87;;;;;;;3.61;nan;98989.31;5052591;28;20327;-71
2022/11/13 02:22:49;;;;;;;60.00;18.20;;;;;;;3.57;nan;98985.34;5053374;28;20603;-71
2022/11/13 02:25:16;;;;;;;62.50;17.53;;;;;;;3.60;nan;98982.38;5053444;28;20632;-71
2022/11/13 02:27:46;;;;;;;59.63;17.07;;;;;;;3.69;nan;98981.47;5053685;28;20209;-71
2022/11/13 02:30:17;;;;;;;98.13;19.40;;;;;;;3.61;nan;98978.78;5053558;28;20201;-71
2022/11/13 02:32:45;;;;;;;57.77;17.40;;;;;;;3.57;nan;98974.81;5053609;28;20205;-71
2022/11/13 02:35:15;;;;;;;59.17;19.60;;;;;;;3.52;nan;98970.00;5053604;28;20213;-71
2022/11/13 02:37:42;;;;;;;91.70;20.47;;;;;;;3.50;nan;98968.50;5053177;28;20690;-71
2022/11/13 02:40:09;;;;;;;61.70;17.23;;;;;;;3.58;nan;98973.84;5053419;28;20582;-71
2022/11/13 02:42:35;;;;;;;72.23;18.43;;;;;;;3.53;nan;98966.38;5053700;28;20217;-71
2022/11/13 02:45:02;;;;;;;36.60;15.60;;;;;;;3.51;nan;98967.53;5053476;28;20205;-71
2022/11/13 02:47:28;;;;;;;37.83;17.13;;;;;;;3.40;nan;98965.16;5053427;28;20710;-71
2022/11/13 02:49:55;;;;;;;43.53;16.70;;;;;;;3.39;nan;98966.94;5052874;28;20208;-71
2022/11/13 02:52:21;;;;;;;68.63;18.33;;;;;;;3.33;nan;98958.81;5053584;28;20212;-71
2022/11/13 02:54:47;;;;;;;42.97;16.50;;;;;;;3.43;nan;98965.66;5053916;28;20205;-71
2022/11/13 02:57:14;;;;;;;79.20;19.07;;;;;;;3.42;nan;98960.53;5053007;28;20211;-71
2022/11/13 02:59:41;;;;;;;69.53;19.27;;;;;;;3.39;nan;98953.00;5053240;28;20225;-71
2022/11/13 03:02:07;;;;;;;87.70;17.63;;;;;;;3.34;nan;98963.13;5052894;28;20225;-71
2022/11/13 03:04:34;;;;;;;67.20;16.80;;;;;;;3.31;nan;98961.63;5052955;28;20205;-71
2022/11/13 03:07:00;;;;;;;50.30;15.13;;;;;;;3.29;nan;98958.31;5052972;28;20690;-71
2022/11/13 03:09:27;;;;;;;80.53;16.47;;;;;;;3.29;nan;98949.63;5052969;28;20212;-71
2022/11/13 03:11:53;;;;;;;80.70;18.03;;;;;;;3.35;nan;98949.00;5053032;28;20229;-71
2022/11/13 03:14:20;;;;;;;90.63;18.40;;;;;;;3.40;nan;98952.84;5053189;28;20292;-71
2022/11/13 03:16:46;;;;;;;59.53;17.43;;;;;;;3.43;nan;98956.97;5052880;28;20213;-71
2022/11/13 03:19:13;;;;;;;91.40;18.67;;;;;;;3.34;nan;98950.81;5053080;28;20307;-71
2022/11/13 03:21:40;;;;;;;90.57;21.73;;;;;;;3.23;nan;98952.84;5052718;28;20599;-71
2022/11/13 03:24:06;;;;;;;93.27;20.90;;;;;;;3.28;nan;98947.94;5052841;28;20186;-71
2022/11/13 03:26:33;;;;;;;67.43;19.57;;;;;;;3.51;nan;98944.69;5053622;28;20209;-71
2022/11/13 03:28:59;;;;;;;105.33;22.10;;;;;;;3.36;nan;98946.22;5052685;28;20207;-71
2022/11/13 03:31:26;;;;;;;210.17;25.10;;;;;;;3.27;nan;98946.31;5052651;28;20232;-71
2022/11/13 03:33:53;;;;;;;237.87;27.83;;;;;;;3.22;nan;98949.41;5053770;28;20205;-71
2022/11/13 03:36:19;;;;;;;209.23;25.93;;;;;;;3.23;nan;98950.22;5052704;28;20672;-71
2022/11/13 03:38:46;;;;;;;106.40;20.73;;;;;;;3.19;nan;98947.06;5053431;28;20228;-71
2022/11/13 03:41:13;;;;;;;180.87;26.53;;;;;;;3.13;nan;98945.06;5052345;28;20708;-71
2022/11/13 03:43:40;;;;;;;215.47;24.77;;;;;;;3.08;nan;98952.53;5052979;28;20205;-71
2022/11/13 03:46:07;;;;;;;112.83;21.40;;;;;;;3.10;nan;98947.97;5052566;28;20205;-71
2022/11/13 03:48:34;;;;;;;237.27;25.37;;;;;;;3.01;nan;98948.03;5053446;28;20202;-71
2022/11/13 03:51:01;;;;;;;88.97;18.20;;;;;;;2.91;nan;98942.03;5052741;28;20221;-71
2022/11/13 03:53:27;;;;;;;94.13;18.93;;;;;;;2.95;nan;98949.47;5052764;28;20209;-71
2022/11/13 03:55:54;;;;;;;134.97;23.70;;;;;;;3.16;nan;98946.56;5052811;28;20205;-71
2022/11/13 03:58:20;;;;;;;49.27;17.07;;;;;;;3.04;nan;98948.59;5052740;28;20205;-71
2022/11/13 04:00:49;;;;;;;73.60;18.30;;;;;;;3.12;nan;98946.00;5052393;28;20225;-71
2022/11/13 04:03:15;;;;;;;58.67;15.27;;;;;;;3.06;nan;98943.16;5054784;28;20669;-71
2022/11/13 04:05:43;;;;;;;55.33;15.23;;;;;;;2.89;nan;98942.19;5056259;28;20201;-71
2022/11/13 04:08:09;;;;;;;39.90;16.07;;;;;;;2.99;nan;98942.13;5056189;28;20205;-71
2022/11/13 04:10:36;;;;;;;33.43;15.97;;;;;;;3.05;nan;98936.25;5056067;28;20231;-71
2022/11/13 04:13:02;;;;;;;55.87;16.80;;;;;;;3.05;nan;98936.25;5056956;28;20525;-71
2022/11/13 04:15:28;;;;;;;47.60;14.90;;;;;;;2.96;nan;98935.38;5056106;28;20207;-71
2022/11/13 04:17:55;;;;;;;34.17;12.57;;;;;;;2.93;nan;98935.66;5055784;28;20544;-71
2022/11/13 04:20:21;;;;;;;41.13;14.90;;;;;;;2.93;nan;98933.03;5055861;28;20256;-71
2022/11/13 04:22:48;;;;;;;23.90;12.07;;;;;;;3.00;nan;98925.38;5055678;28;20220;-71
2022/11/13 04:25:14;;;;;;;34.43;13.40;;;;;;;3.06;nan;98917.72;5055859;28;20205;-71
2022/11/13 04:27:41;;;;;;;25.00;11.87;;;;;;;3.04;nan;98918.84;5055527;28;20709;-71
2022/11/13 04:30:08;;;;;;;19.30;12.40;;;;;;;3.06;nan;98917.72;5055730;28;20205;-71
2022/11/13 04:32:34;;;;;;;34.17;12.57;;;;;;;3.09;nan;98916.59;5055810;28;20202;-71
2022/11/13 04:35:01;;;;;;;54.47;13.60;;;;;;;3.02;nan;98911.13;5055568;28;20216;-71
2022/11/13 04:37:27;;;;;;;40.63;12.47;;;;;;;2.77;nan;98901.38;5055594;28;20205;-71
2022/11/13 04:39:54;;;;;;;29.83;12.23;;;;;;;2.91;nan;98900.84;5055036;28;20692;-71
2022/11/13 04:45:05;;;;;;;38.43;12.53;;;;;;;2.80;nan;98902.88;5055414;28;20630;-71
2022/11/13 04:47:31;;;;;;;15.00;10.73;;;;;;;2.85;nan;98893.56;5055149;28;20216;-71
2022/11/13 04:49:57;;;;;;;14.50;10.93;;;;;;;2.81;nan;98902.72;5055380;28;20208;-71
2022/11/13 04:52:24;;;;;;;17.97;10.90;;;;;;;2.71;nan;98895.91;5055033;28;20212;-71
2022/11/13 04:54:50;;;;;;;34.87;11.53;;;;;;;2.60;nan;98896.09;5054987;28;20209;-71
2022/11/13 04:57:16;;;;;;;18.43;10.80;;;;;;;2.57;nan;98893.78;5054898;28;20208;-71
2022/11/13 04:59:43;;;;;;;20.90;11.33;;;;;;;2.59;nan;98887.41;5054728;28;20224;-71
2022/11/13 05:02:09;;;;;;;12.87;10.53;;;;;;;2.75;nan;98889.38;5055040;28;20570;-71
2022/11/13 05:04:35;;;;;;;14.33;9.67;;;;;;;2.67;nan;98884.84;5055053;28;20205;-71
2022/11/13 05:07:02;;;;;;;38.27;10.87;;;;;;;2.56;nan;98879.81;5055008;28;20212;-71
2022/11/13 05:09:28;;;;;;;36.27;11.20;;;;;;;2.38;nan;98876.34;5055064;28;20288;-71
2022/11/13 05:11:55;;;;;;;33.77;11.80;;;;;;;2.35;nan;98873.22;5054897;28;20228;-71
2022/11/13 05:14:21;;;;;;;20.87;10.47;;;;;;;2.33;nan;98872.50;5054620;28;20209;-71
2022/11/13 05:16:48;;;;;;;52.10;11.67;;;;;;;2.25;nan;98877.69;5054972;28;20205;-71
2022/11/13 05:19:15;;;;;;;59.63;12.33;;;;;;;2.20;nan;98870.25;5054858;28;20221;-71
2022/11/13 05:21:42;;;;;;;87.10;14.00;;;;;;;2.31;nan;98869.22;5054452;28;20233;-70
2022/11/13 05:24:10;;;;;;;27.57;11.40;;;;;;;2.41;nan;98864.72;5054741;28;20205;-71
2022/11/13 05:26:39;;;;;;;24.97;11.07;;;;;;;2.41;nan;98868.19;5054630;28;20212;-71
2022/11/13 05:29:06;;;;;;;14.60;10.10;;;;;;;2.47;nan;98864.97;5054344;28;20202;-71
2022/11/13 05:31:33;;;;;;;26.37;11.90;;;;;;;2.50;nan;98866.47;5054113;28;20233;-71
2022/11/13 05:33:59;;;;;;;18.97;10.90;;;;;;;2.47;nan;98864.13;5054407;28;20707;-71
2022/11/13 05:36:25;;;;;;;20.67;11.43;;;;;;;2.41;nan;98867.34;5054898;28;20683;-71
2022/11/13 05:38:52;;;;;;;14.13;10.40;;;;;;;2.48;nan;98863.19;5054462;28;20282;-71
2022/11/13 05:41:21;;;;;;;11.87;8.83;;;;;;;2.44;nan;98861.81;5054376;28;20231;-71
2022/11/13 05:43:48;;;;;;;14.87;10.07;;;;;;;2.36;nan;98859.09;5054449;28;20212;-71
2022/11/13 05:46:17;;;;;;;12.17;9.37;;;;;;;2.39;nan;98864.06;5054082;28;20668;-71
2022/11/13 05:48:45;;;;;;;12.93;10.33;;;;;;;2.32;nan;98861.22;5054057;28;20595;-71
2022/11/13 05:51:14;;;;;;;13.47;8.87;;;;;;;2.34;nan;98863.69;5054189;28;20225;-71
2022/11/13 05:53:41;;;;;;;16.77;10.23;;;;;;;2.25;nan;98859.34;5053943;28;20219;-71
2022/11/13 05:56:14;;;;;;;13.63;9.67;;;;;;;2.08;nan;98854.88;5054166;28;20205;-71
2022/11/13 05:58:42;;;;;;;10.33;8.47;;;;;;;2.09;nan;98853.88;5054150;28;20190;-71
2022/11/13 06:01:19;;;;;;;18.93;10.47;;;;;;;1.82;nan;98857.34;5053846;28;20232;-71
2022/11/13 06:03:47;;;;;;;12.60;9.77;;;;;;;1.86;nan;98866.56;5053960;28;20211;-71
2022/11/13 06:06:16;;;;;;;13.97;9.23;;;;;;;2.13;nan;98860.50;5053993;28;20205;-71
2022/11/13 06:08:44;;;;;;;10.60;9.23;;;;;;;2.14;nan;98862.97;5053882;28;20209;-71
2022/11/13 06:11:13;;;;;;;11.07;9.17;;;;;;;2.08;nan;98860.09;5053600;28;20235;-71
2022/11/13 06:13:40;;;;;;;9.10;8.20;;;;;;;2.13;nan;98858.72;5053886;28;20205;-71
2022/11/13 06:16:14;;;;;;;8.53;7.57;;;;;;;2.16;nan;98863.63;5053819;28;20201;-71
2022/11/13 06:18:42;;;;;;;8.67;7.87;;;;;;;2.18;nan;98861.72;5053815;28;20188;-71
2022/11/13 06:21:20;;;;;;;9.50;8.60;;;;;;;2.24;nan;98857.66;5053551;28;20225;-71
2022/11/13 06:23:46;;;;;;;8.30;7.57;;;;;;;2.23;nan;98861.25;5053844;28;20193;-71
2022/11/13 06:26:16;;;;;;;9.30;7.70;;;;;;;2.11;nan;98860.63;5052945;28;20231;-71
2022/11/13 06:28:43;;;;;;;10.70;8.23;;;;;;;2.12;nan;98854.41;5053950;28;20230;-71
2022/11/13 06:31:16;;;;;;;12.50;8.40;;;;;;;2.11;nan;98847.53;5053615;28;20228;-71
2022/11/13 06:33:42;;;;;;;12.00;9.20;;;;;;;2.19;nan;98854.66;5054436;28;20206;-71
2022/11/13 06:36:17;;;;;;;12.00;7.87;;;;;;;2.25;nan;98841.78;5053477;28;20205;-71
2022/11/13 06:38:44;;;;;;;12.57;8.77;;;;;;;2.39;nan;98848.34;5053440;28;20189;-71
2022/11/13 06:41:13;;;;;;;9.33;8.13;;;;;;;2.22;nan;98842.06;5053354;28;20225;-71
2022/11/13 06:43:40;;;;;;;9.63;8.43;;;;;;;2.22;nan;98830.75;5053961;28;20219;-72
2022/11/13 06:46:11;;;;;;;18.87;8.37;;;;;;;2.32;nan;98837.59;5053379;28;20212;-71
2022/11/13 06:48:37;;;;;;;10.63;7.87;;;;;;;2.35;nan;98836.47;5053380;28;20189;-71
2022/11/13 06:51:07;;;;;;;10.43;7.60;;;;;;;2.37;nan;98834.50;5053158;28;20221;-71
2022/11/13 06:53:34;;;;;;;15.10;8.57;;;;;;;2.30;nan;98841.34;5053398;28;20207;-71
2022/11/13 06:56:01;;;;;;;7.83;7.03;;;;;;;2.15;nan;98827.06;5053435;28;20220;-71
2022/11/13 06:58:27;;;;;;;14.77;6.80;;;;;;;2.15;nan;98827.91;5053382;28;20220;-72
2022/11/13 07:00:54;;;;;;;13.27;7.70;;;;;;;2.13;nan;98829.84;5053220;28;20229;-71
2022/11/13 07:03:23;;;;;;;9.53;7.17;;;;;;;2.21;nan;98821.25;5053290;28;20209;-71
2022/11/13 07:05:50;;;;;;;10.33;7.27;;;;;;;2.27;nan;98823.25;5052933;28;20771;-71
2022/11/13 07:08:18;;;;;;;9.77;6.90;;;;;;;2.37;nan;98826.66;5053140;28;20211;-71
2022/11/13 07:10:52;;;;;;;57.17;8.50;;;;;;;2.01;nan;98819.69;5053118;28;20221;-71
2022/11/13 07:13:18;;;;;;;38.27;8.03;;;;;;;1.97;nan;98820.97;5052927;28;20190;-71
2022/11/13 07:15:44;;;;;;;29.43;7.93;;;;;;;1.90;nan;98807.59;5052808;28;20205;-71
2022/11/13 07:18:11;;;;;;;21.47;6.83;;;;;;;1.98;nan;98812.94;5053139;28;20209;-71
2022/11/13 07:20:37;;;;;;;20.13;6.97;;;;;;;2.09;nan;98811.94;5052935;28;20233;-71
2022/11/13 07:23:04;;;;;;;146.53;13.20;;;;;;;2.20;nan;98814.31;5052735;28;20688;-71
2022/11/13 07:25:31;;;;;;;39.90;8.83;;;;;;;2.03;nan;98815.94;5052726;28;20216;-71
2022/11/13 07:27:58;;;;;;;47.17;8.37;;;;;;;2.00;nan;98811.03;5052935;28;20208;-71
2022/11/13 07:30:25;;;;;;;32.57;7.77;;;;;;;2.10;nan;98817.03;5052809;28;20723;-71
2022/11/13 07:32:51;;;;;;;52.37;10.30;;;;;;;2.15;nan;98801.66;5053039;28;20206;-71
2022/11/13 07:35:18;;;;;;;43.23;8.90;;;;;;;2.10;nan;98811.78;5052897;28;20211;-71
2022/11/13 07:37:44;;;;;;;19.63;8.37;;;;;;;2.19;nan;98804.81;5055929;28;20209;-71
2022/11/13 07:40:12;;;;;;;43.17;8.77;;;;;;;2.12;nan;98801.16;5056623;28;20233;-71
2022/11/13 07:42:39;;;;;;;68.80;9.80;;;;;;;2.12;nan;98793.28;5056785;28;20642;-71
2022/11/13 07:45:06;;;;;;;38.57;8.00;;;;;;;2.30;nan;98792.31;5056674;28;20205;-71
2022/11/13 07:47:32;;;;;;;16.30;7.87;;;;;;;2.13;nan;98792.31;5056478;28;20211;-71
2022/11/13 07:49:59;;;;;;;39.43;8.27;;;;;;;2.19;nan;98779.41;5056517;28;20229;-71
2022/11/13 07:52:25;;;;;;;17.27;7.20;;;;;;;2.07;nan;98777.16;5056585;28;20201;-71
2022/11/13 07:54:51;;;;;;;11.77;7.53;;;;;;;2.22;nan;98783.53;5056213;28;20209;-71
2022/11/13 07:57:19;;;;;;;43.73;9.93;;;;;;;2.31;nan;98782.66;5056519;28;20609;-72
2022/11/13 07:59:46;;;;;;;21.17;8.00;;;;;;;2.23;nan;98772.06;5056404;28;20217;-71
2022/11/13 08:02:16;;;;;;;11.87;7.87;;;;;;;2.32;nan;98776.41;5056246;28;20229;-71
2022/11/13 08:04:42;;;;;;;15.20;7.87;;;;;;;2.43;nan;98770.97;5056115;28;20216;-71
2022/11/13 08:07:11;;;;;;;9.90;7.17;;;;;;;2.55;nan;98774.97;5056128;28;20209;-71
2022/11/13 08:09:37;;;;;;;38.23;8.07;;;;;;;2.15;nan;98775.44;5055748;28;20552;-71
2022/11/13 08:12:04;;;;;;;31.03;8.53;;;;;;;2.12;nan;98774.94;5055681;28;20316;-71
2022/11/13 08:14:30;;;;;;;19.43;8.70;;;;;;;2.28;nan;98775.06;5056112;28;20303;-71
2022/11/13 08:16:57;;;;;;;12.13;8.40;;;;;;;2.39;nan;98772.22;5056017;28;20211;-71
2022/11/13 08:19:23;;;;;;;54.10;8.80;;;;;;;2.21;nan;98760.91;5055814;28;20583;-71
2022/11/13 08:21:49;;;;;;;25.00;7.63;;;;;;;2.39;nan;98759.13;5055288;28;20236;-71
2022/11/13 08:24:16;;;;;;;22.03;7.37;;;;;;;2.41;nan;98759.78;5056194;28;20528;-71
2022/11/13 08:26:42;;;;;;;9.90;7.53;;;;;;;2.68;nan;98762.31;5055603;28;20292;-71
2022/11/13 08:29:08;;;;;;;25.57;7.73;;;;;;;2.40;nan;98763.38;5055647;28;20205;-71
2022/11/13 08:31:35;;;;;;;14.70;7.57;;;;;;;2.38;nan;98757.44;5055676;28;20232;-71
2022/11/13 08:34:01;;;;;;;14.63;7.30;;;;;;;2.33;nan;98749.19;5055926;28;20351;-71
2022/11/13 08:36:28;;;;;;;10.97;7.27;;;;;;;2.65;nan;98750.31;5055345;28;20661;-71
2022/11/13 08:38:54;;;;;;;11.83;7.23;;;;;;;2.50;nan;98738.72;5055551;28;20209;-71
2022/11/13 08:41:20;;;;;;;9.83;7.60;;;;;;;2.55;nan;98733.81;5055392;28;20232;-71
2022/11/13 08:43:47;;;;;;;17.20;7.27;;;;;;;2.62;nan;98728.78;5055431;28;20296;-71
2022/11/13 08:46:13;;;;;;;9.90;7.60;;;;;;;2.56;nan;98737.25;5055459;28;20210;-71
2022/11/13 08:48:39;;;;;;;7.87;7.10;;;;;;;2.63;nan;98727.81;5054754;28;20208;-71
2022/11/13 08:51:06;;;;;;;7.80;7.03;;;;;;;3.00;nan;98737.09;5055423;28;20217;-71
2022/11/13 08:53:32;;;;;;;8.23;7.37;;;;;;;2.99;nan;98738.06;5055387;28;20212;-71
2022/11/13 08:56:02;;;;;;;7.27;6.57;;;;;;;3.37;nan;98732.38;5055349;28;20202;-71
2022/11/13 08:58:29;;;;;;;6.90;6.23;;;;;;;3.25;nan;98732.81;5054859;28;20209;-71
2022/11/13 09:01:03;;;;;;;7.53;6.83;;;;;;;3.21;nan;98734.09;5054663;28;20229;-71
2022/11/13 09:03:29;;;;;;;8.03;7.23;;;;;;;3.22;nan;98741.84;5055173;28;20197;-71
2022/11/13 09:05:55;;;;;;;8.57;7.77;;;;;;;3.23;nan;98724.25;5055020;28;20296;-71
2022/11/13 09:08:22;;;;;;;10.83;8.80;;;;;;;2.95;nan;98728.03;5055046;28;20207;-71
2022/11/13 09:10:48;;;;;;;10.80;9.70;;;;;;;3.17;nan;98730.94;5054664;28;20231;-71
2022/11/13 09:13:14;;;;;;;9.47;8.50;;;;;;;3.37;nan;98727.13;5054744;28;20209;-71
2022/11/13 09:15:41;;;;;;;8.70;7.80;;;;;;;2.94;nan;98715.88;5055001;28;20573;-71
2022/11/13 09:18:07;;;;;;;9.13;8.23;;;;;;;3.13;nan;98716.50;5054752;28;20259;-71
2022/11/13 09:20:34;;;;;;;8.83;8.03;;;;;;;3.36;nan;98712.34;5054695;28;20240;-71
2022/11/13 09:23:02;;;;;;;7.93;7.13;;;;;;;3.46;nan;98731.44;5054411;28;20213;-71
2022/11/13 09:25:31;;;;;;;8.10;7.30;;;;;;;3.41;nan;98728.44;5054762;28;20233;-71
2022/11/13 09:27:59;;;;;;;7.43;6.83;;;;;;;3.31;nan;98729.53;5054290;28;20209;-71
2022/11/13 09:30:27;;;;;;;7.80;7.10;;;;;;;3.48;nan;98726.03;5054160;28;20221;-71
2022/11/13 09:32:56;;;;;;;7.87;7.07;;;;;;;3.43;nan;98730.94;5054602;28;20211;-71
2022/11/13 09:35:33;;;;;;;7.57;6.87;;;;;;;3.63;nan;98727.88;5054406;28;20251;-71
2022/11/13 09:38:08;;;;;;;8.07;7.37;;;;;;;3.85;nan;98718.56;5054481;28;20193;-71
2022/11/13 09:40:37;;;;;;;8.13;7.43;;;;;;;4.15;nan;98712.69;5054165;28;20228;-71
2022/11/13 09:43:07;;;;;;;8.10;7.40;;;;;;;4.33;nan;98718.63;5052860;28;20212;-71
2022/11/13 09:45:34;;;;;;;8.33;7.50;;;;;;;4.11;nan;98711.41;5054735;28;20731;-71
2022/11/13 09:48:21;;;;;;;8.00;7.20;;;;;;;4.08;nan;98715.19;5054189;28;20318;-71
2022/11/13 09:50:48;;;;;;;8.77;7.90;;;;;;;4.18;nan;98707.13;5050915;28;20699;-71
2022/11/13 09:53:15;;;;;;;8.47;7.67;;;;;;;4.50;nan;98720.28;5038398;28;20213;-71
2022/11/13 09:55:56;;;;;;;9.10;8.20;;;;;;;4.44;nan;98718.34;5045208;28;20210;-71
2022/11/13 09:58:31;;;;;;;9.40;8.30;;;;;;;4.60;nan;98715.69;5039488;28;20220;-71
2022/11/13 10:01:00;;;;;;;9.47;8.67;;;;;;;4.69;nan;98722.59;5050907;28;20233;-71
2022/11/13 10:03:46;;;;;;;9.00;8.20;;;;;;;4.57;nan;98718.66;5053858;28;20215;-71
2022/11/13 10:06:34;;;;;;;9.17;8.27;;;;;;;4.67;nan;98708.78;5053913;28;20556;-71
2022/11/13 10:09:15;;;;;;;8.27;7.57;;;;;;;4.56;nan;98707.28;5053941;28;20251;-71
2022/11/13 10:11:46;;;;;;;8.77;7.90;;;;;;;4.49;nan;98701.06;5053806;28;20328;-71
2022/11/13 10:14:24;;;;;;;9.20;8.07;;;;;;;4.68;nan;98705.16;5053729;28;20212;-71
2022/11/13 10:17:18;;;;;;;8.90;8.00;;;;;;;4.58;nan;98710.59;5053554;28;20652;-71
2022/11/13 10:20:20;;;;;;;8.73;7.93;;;;;;;4.45;nan;98698.91;5053722;28;20190;-71
2022/11/13 10:22:51;;;;;;;8.20;7.40;;;;;;;4.67;nan;98699.06;5046181;28;20217;-71
2022/11/13 10:25:23;;;;;;;10.03;9.10;;;;;;;4.93;nan;98683.06;5053255;28;20205;-72
2022/11/13 10:28:01;;;;;;;9.00;8.20;;;;;;;5.05;nan;98687.78;5053437;28;20192;-72
2022/11/13 10:30:28;;;;;;;7.77;7.07;;;;;;;4.88;nan;98691.44;5053427;28;20236;-71
2022/11/13 10:33:02;;;;;;;8.43;7.63;;;;;;;5.34;nan;98681.94;5053246;28;20240;-71
2022/11/13 10:35:28;;;;;;;8.33;7.63;;;;;;;5.67;nan;98672.88;5053537;28;20198;-71
2022/11/13 10:38:24;;;;;;;8.90;8.00;;;;;;;5.43;nan;98676.44;5053417;28;20292;-71
2022/11/13 10:40:51;;;;;;;8.90;8.10;;;;;;;5.16;nan;98665.53;5041219;28;20229;-71
2022/11/13 10:43:23;;;;;;;8.90;8.00;;;;;;;5.28;nan;98672.88;5050930;28;20215;-71
2022/11/13 10:45:56;;;;;;;9.50;8.60;;;;;;;5.40;nan;98665.44;5051482;28;20208;-71
2022/11/13 10:48:26;;;;;;;9.67;8.77;;;;;;;5.81;nan;98667.72;5053283;28;20209;-71
2022/11/13 10:51:21;;;;;;;10.10;9.20;;;;;;;5.82;nan;98665.91;5051207;28;20217;-71
2022/11/13 10:53:49;;;;;;;8.73;7.83;;;;;;;5.70;nan;98654.09;5052988;28;20201;-71
2022/11/13 10:56:26;;;;;;;9.43;8.43;;;;;;;5.60;nan;98648.19;5052790;28;20209;-71
2022/11/13 10:59:12;;;;;;;9.10;8.23;;;;;;;5.93;nan;98639.91;5053233;28;20206;-72
2022/11/13 11:01:40;;;;;;;8.83;8.03;;;;;;;6.00;nan;98642.69;5052992;28;20237;-71
2022/11/13 11:04:12;;;;;;;9.23;8.43;;;;;;;6.07;nan;98633.09;5052898;28;20209;-71
2022/11/13 11:06:40;;;;;;;8.80;7.90;;;;;;;5.95;nan;98623.91;5053112;28;20189;-71
2022/11/13 11:09:13;;;;;;;9.57;8.47;;;;;;;6.21;nan;98613.81;5052979;28;20237;-71
2022/11/13 11:14:38;;;;;;;8.77;7.97;;;;;;;6.26;nan;98598.28;5057195;28;20559;-71
2022/11/13 11:17:06;;;;;;;9.00;8.20;;;;;;;6.38;nan;98584.44;5057076;28;20211;-71
2022/11/13 11:19:36;;;;;;;8.73;7.90;;;;;;;6.52;nan;98580.19;5051559;28;20213;-71
2022/11/13 11:22:18;;;;;;;8.60;7.80;;;;;;;6.80;nan;98573.28;5053318;28;20237;-72
2022/11/13 11:24:56;;;;;;;8.50;7.60;;;;;;;6.87;nan;98579.50;5056790;28;20208;-71
2022/11/13 11:27:32;;;;;;;8.03;7.23;;;;;;;6.87;nan;98576.84;5057329;28;20204;-69
2022/11/13 11:30:18;;;;;;;7.47;6.87;;;;;;;6.96;nan;98573.91;5056761;28;20195;-72
2022/11/13 11:32:52;;;;;;;8.83;8.03;;;;;;;7.12;nan;98567.59;5057373;28;20185;-72
2022/11/13 11:35:48;;;;;;;8.97;8.17;;;;;;;7.20;nan;98559.56;5056350;28;20198;-71
2022/11/13 11:38:37;;;;;;;8.20;7.50;;;;;;;7.24;nan;98561.66;5056064;28;20204;-71
2022/11/13 11:41:10;;;;;;;7.80;7.10;;;;;;;7.34;nan;98556.06;5056376;28;20240;-71
2022/11/13 11:43:49;;;;;;;9.00;7.60;;;;;;;7.20;nan;98562.22;5055267;28;20200;-71
2022/11/13 11:46:23;;;;;;;8.37;7.13;;;;;;;7.29;nan;98551.34;5056488;28;20207;-71
2022/11/13 11:48:50;;;;;;;8.43;7.67;;;;;;;7.31;nan;98545.88;5056533;28;20201;-72
2022/11/13 11:51:25;;;;;;;8.60;7.80;;;;;;;7.44;nan;98536.25;5056260;28;20217;-72
2022/11/13 11:54:10;;;;;;;7.97;7.17;;;;;;;7.58;nan;98534.56;5056309;28;20216;-71
2022/11/13 11:56:44;;;;;;;8.27;7.40;;;;;;;7.61;nan;98536.84;5056338;28;20223;-71
2022/11/13 11:59:16;;;;;;;8.83;7.67;;;;;;;7.55;nan;98538.41;5054914;28;20551;-71
2022/11/13 12:02:10;;;;;;;8.60;7.80;;;;;;;7.52;nan;98522.88;5054598;28;20247;-71
2022/11/13 12:04:42;;;;;;;8.90;8.00;;;;;;;7.59;nan;98515.84;5056055;28;20194;-70